createdAt,value
2023-03-11T00:01:19.901Z,6.41
2023-03-11T00:03:50.320Z,6.42
2023-03-11T00:06:19.510Z,6.43
2023-03-11T00:08:48.756Z,6.44
2023-03-11T00:11:19.307Z,6.46
2023-03-11T00:13:48.661Z,6.47
2023-03-11T00:16:17.696Z,6.49
2023-03-11T00:18:50.027Z,6.52
2023-03-11T00:21:20.132Z,6.54
2023-03-11T00:23:52.521Z,6.57
2023-03-11T00:26:23.581Z,6.59
2023-03-11T00:28:55.112Z,6.60
2023-03-11T00:31:25.968Z,6.61
2023-03-11T00:33:56.782Z,6.61
2023-03-11T00:36:31.683Z,6.60
2023-03-11T00:39:07.349Z,6.60
2023-03-11T00:41:39.027Z,6.59
2023-03-11T00:44:09.055Z,6.58
2023-03-11T00:46:38.167Z,6.56
2023-03-11T00:49:09.591Z,6.55
2023-03-11T00:51:38.975Z,6.52
2023-03-11T00:54:11.609Z,6.49
2023-03-11T00:56:45.154Z,6.46
2023-03-11T00:59:14.872Z,6.44
2023-03-11T01:01:48.674Z,6.38
2023-03-11T01:04:17.937Z,6.34
2023-03-11T01:06:48.608Z,6.29
2023-03-11T01:09:18.157Z,6.25
2023-03-11T01:11:51.770Z,6.20
2023-03-11T01:14:23.067Z,6.16
2023-03-11T01:16:54.917Z,6.10
2023-03-11T01:19:24.934Z,6.05
2023-03-11T01:21:56.070Z,6.01
2023-03-11T01:24:26.200Z,5.97
2023-03-11T01:26:55.216Z,5.93
2023-03-11T01:29:26.582Z,5.87
2023-03-11T01:31:56.143Z,5.82
2023-03-11T01:34:25.704Z,5.76
2023-03-11T01:36:54.852Z,5.72
2023-03-11T01:39:24.870Z,5.67
2023-03-11T01:41:55.734Z,5.60
2023-03-11T01:44:26.340Z,5.55
2023-03-11T01:47:34.697Z,5.51
2023-03-11T01:50:09.646Z,5.44
2023-03-11T01:52:42.573Z,5.40
2023-03-11T01:55:14.691Z,5.33
2023-03-11T01:57:46.733Z,5.28
2023-03-11T02:00:17.365Z,5.23
2023-03-11T02:02:51.639Z,5.18
2023-03-11T02:05:26.196Z,5.13
2023-03-11T02:07:58.170Z,5.06
2023-03-11T02:10:30.645Z,5.00
2023-03-11T02:13:02.683Z,4.95
2023-03-11T02:15:32.696Z,4.89
2023-03-11T02:18:08.213Z,4.85
2023-03-11T02:20:47.434Z,4.78
2023-03-11T02:23:22.372Z,4.71
2023-03-11T02:26:01.877Z,4.66
2023-03-11T02:28:37.220Z,4.60
2023-03-11T02:31:06.344Z,4.57
2023-03-11T02:33:38.350Z,4.54
2023-03-11T02:36:29.000Z,4.50
2023-03-11T02:39:01.775Z,4.44
2023-03-11T02:41:34.226Z,4.40
2023-03-11T02:44:05.445Z,4.33
2023-03-11T02:46:37.072Z,4.27
2023-03-11T02:49:07.883Z,4.18
2023-03-11T02:51:37.048Z,4.12
2023-03-11T02:54:06.481Z,4.06
2023-03-11T02:56:37.338Z,4.00
2023-03-11T02:59:06.471Z,3.96
2023-03-11T03:01:35.839Z,3.94
2023-03-11T03:04:05.839Z,3.92
2023-03-11T03:06:39.054Z,3.89
2023-03-11T03:09:08.951Z,3.84
2023-03-11T03:11:37.998Z,3.78
2023-03-11T03:14:07.353Z,3.74
2023-03-11T03:16:36.960Z,3.68
2023-03-11T03:19:08.224Z,3.64
2023-03-11T03:21:41.215Z,3.62
2023-03-11T03:24:11.911Z,3.59
2023-03-11T03:26:41.518Z,3.56
2023-03-11T03:29:11.977Z,3.53
2023-03-11T03:31:43.940Z,3.50
2023-03-11T03:34:15.170Z,3.49
2023-03-11T03:36:46.775Z,3.48
2023-03-11T03:39:19.458Z,3.48
2023-03-11T03:41:50.452Z,3.48
2023-03-11T03:44:20.250Z,3.48
2023-03-11T03:46:52.085Z,3.50
2023-03-11T03:49:22.109Z,3.55
2023-03-11T03:51:52.320Z,3.63
2023-03-11T03:54:31.517Z,3.66
2023-03-11T03:57:01.983Z,3.72
2023-03-11T03:59:32.749Z,3.77
2023-03-11T04:02:03.756Z,3.77
2023-03-11T04:04:33.555Z,3.79
2023-03-11T04:07:17.087Z,3.80
2023-03-11T04:09:47.886Z,3.83
2023-03-11T04:12:17.727Z,3.86
2023-03-11T04:14:49.301Z,3.90
2023-03-11T04:17:18.632Z,3.96
2023-03-11T04:19:48.894Z,4.00
2023-03-11T04:22:18.436Z,4.05
2023-03-11T04:24:48.028Z,4.05
2023-03-11T04:27:17.241Z,4.05
2023-03-11T04:29:47.038Z,4.07
2023-03-11T04:32:16.093Z,4.08
2023-03-11T04:34:46.482Z,4.09
2023-03-11T04:37:20.362Z,4.10
2023-03-11T04:39:52.826Z,4.11
2023-03-11T04:42:21.958Z,4.12
2023-03-11T04:44:51.513Z,4.13
2023-03-11T04:47:30.626Z,4.13
2023-03-11T04:50:06.405Z,4.13
2023-03-11T04:52:35.782Z,4.15
2023-03-11T04:55:10.202Z,4.16
2023-03-11T04:57:42.977Z,4.18
2023-03-11T05:00:15.809Z,4.20
2023-03-11T05:02:47.125Z,4.21
2023-03-11T05:05:18.932Z,4.25
2023-03-11T05:07:48.523Z,4.28
2023-03-11T05:10:23.049Z,4.33
2023-03-11T05:12:54.272Z,4.38
2023-03-11T05:15:25.735Z,4.43
2023-03-11T05:18:07.025Z,4.47
2023-03-11T05:20:44.709Z,4.54
2023-03-11T05:23:14.149Z,4.59
2023-03-11T05:25:44.029Z,4.66
2023-03-11T05:28:18.264Z,4.72
2023-03-11T05:30:52.024Z,4.81
2023-03-11T05:33:21.364Z,4.87
2023-03-11T05:35:52.225Z,4.93
2023-03-11T05:38:21.957Z,5.00
2023-03-11T05:40:51.882Z,5.06
2023-03-11T05:43:26.290Z,5.12
2023-03-11T05:46:06.674Z,5.18
2023-03-11T05:48:41.776Z,5.24
2023-03-11T05:51:12.024Z,5.30
2023-03-11T05:53:48.101Z,5.34
2023-03-11T05:56:22.963Z,5.40
2023-03-11T05:58:58.248Z,5.45
2023-03-11T06:01:40.023Z,5.49
2023-03-11T06:04:17.457Z,5.55
2023-03-11T06:06:52.902Z,5.61
2023-03-11T06:09:24.088Z,5.66
2023-03-11T06:11:57.734Z,5.72
2023-03-11T06:14:31.350Z,5.79
2023-03-11T06:17:03.763Z,5.87
2023-03-11T06:19:33.007Z,5.96
2023-03-11T06:22:12.325Z,6.02
2023-03-11T06:24:41.555Z,6.07
2023-03-11T06:27:11.024Z,6.14
2023-03-11T06:29:41.414Z,6.18
2023-03-11T06:32:11.781Z,6.25
2023-03-11T06:34:40.943Z,6.31
2023-03-11T06:37:20.761Z,6.34
2023-03-11T06:39:57.731Z,6.40
2023-03-11T06:42:32.219Z,6.42
2023-03-11T06:45:06.889Z,6.44
2023-03-11T06:47:37.266Z,6.47
2023-03-11T06:50:11.686Z,6.48
2023-03-11T06:52:40.667Z,6.53
2023-03-11T06:55:11.358Z,6.58
2023-03-11T06:57:40.551Z,6.61
2023-03-11T07:00:15.176Z,6.65
2023-03-11T07:02:49.682Z,6.66
2023-03-11T07:05:23.870Z,6.66
2023-03-11T07:07:58.089Z,6.67
2023-03-11T07:10:29.074Z,6.67
2023-03-11T07:12:58.728Z,6.67
2023-03-11T07:15:28.213Z,6.70
2023-03-11T07:17:58.418Z,6.72
2023-03-11T07:20:29.919Z,6.73
2023-03-11T07:22:59.187Z,6.76
2023-03-11T07:25:30.225Z,6.75
2023-03-11T07:27:59.204Z,6.77
2023-03-11T07:30:29.554Z,6.76
2023-03-11T07:32:59.063Z,6.76
2023-03-11T07:35:31.835Z,6.77
2023-03-11T07:38:02.436Z,6.77
2023-03-11T07:40:31.886Z,6.80
2023-03-11T07:43:03.095Z,6.83
2023-03-11T07:45:35.162Z,6.85
2023-03-11T07:48:13.842Z,6.88
2023-03-11T07:50:44.889Z,6.89
2023-03-11T07:53:13.984Z,6.92
2023-03-11T07:55:42.986Z,6.91
2023-03-11T07:58:12.331Z,6.91
2023-03-11T08:00:42.069Z,6.90
2023-03-11T08:03:11.314Z,6.89
2023-03-11T08:05:43.383Z,6.88
2023-03-11T08:08:55.831Z,6.88
2023-03-11T08:11:51.142Z,6.90
2023-03-11T08:14:26.112Z,6.90
2023-03-11T08:16:59.686Z,6.91
2023-03-11T08:19:41.014Z,6.92
2023-03-11T08:22:18.629Z,6.92
2023-03-11T08:25:01.508Z,6.93
2023-03-11T08:27:40.603Z,6.95
2023-03-11T08:30:29.280Z,6.93
2023-03-11T08:33:09.366Z,6.92
2023-03-11T08:35:45.160Z,6.91
2023-03-11T08:38:22.915Z,6.90
2023-03-11T08:40:56.180Z,6.89
2023-03-11T08:43:30.631Z,6.86
2023-03-11T08:46:16.794Z,6.83
2023-03-11T08:48:50.746Z,6.78
2023-03-11T08:51:37.623Z,6.76
2023-03-11T08:54:16.031Z,6.70
2023-03-11T08:56:52.603Z,6.64
2023-03-11T08:59:32.266Z,6.61
2023-03-11T09:02:20.535Z,6.59
2023-03-11T09:05:03.690Z,6.57
2023-03-11T09:08:09.474Z,6.53
2023-03-11T09:15:03.795Z,6.34
2023-03-11T09:21:33.868Z,6.25
2023-03-11T09:24:55.464Z,6.21
2023-03-11T09:27:35.338Z,6.17
2023-03-11T09:30:06.218Z,6.16
2023-03-11T09:32:35.406Z,6.12
2023-03-11T09:35:05.943Z,6.07
2023-03-11T09:37:36.008Z,6.01
2023-03-11T09:40:07.864Z,5.93
2023-03-11T09:42:44.257Z,5.68
2023-03-11T09:45:17.014Z,5.45
2023-03-11T09:48:02.535Z,5.28
2023-03-11T09:50:35.009Z,5.04
2023-03-11T09:53:23.052Z,4.82
2023-03-11T09:55:55.525Z,4.58
2023-03-11T09:58:36.002Z,4.39
2023-03-11T10:01:19.450Z,4.21
2023-03-11T10:03:50.124Z,4.02
2023-03-11T10:06:24.449Z,3.91
2023-03-11T10:09:15.761Z,3.78
2023-03-11T10:12:17.637Z,3.64
2023-03-11T10:15:05.819Z,3.50
2023-03-11T10:17:59.748Z,3.35
2023-03-11T10:20:31.922Z,3.17
2023-03-11T10:23:16.377Z,3.02
2023-03-11T10:25:54.927Z,2.90
2023-03-11T10:28:28.857Z,2.84
2023-03-11T10:31:03.603Z,2.81
2023-03-11T10:33:39.901Z,2.76
2023-03-11T10:36:16.884Z,2.72
2023-03-11T10:38:48.444Z,2.63
2023-03-11T10:41:24.724Z,2.55
2023-03-11T10:44:01.522Z,2.46
2023-03-11T10:46:31.084Z,2.36
2023-03-11T10:49:02.238Z,2.27
2023-03-11T10:51:35.858Z,2.22
2023-03-11T10:54:05.651Z,2.17
2023-03-11T10:56:37.403Z,2.10
2023-03-11T10:59:23.118Z,2.01
2023-03-11T11:01:57.331Z,1.94
2023-03-11T11:04:30.766Z,1.83
2023-03-11T11:07:21.630Z,1.74
2023-03-11T11:10:14.450Z,1.63
2023-03-11T11:12:55.744Z,1.56
2023-03-11T11:15:28.875Z,1.52
2023-03-11T11:18:04.136Z,1.49
2023-03-11T11:20:54.091Z,1.43
2023-03-11T11:23:30.981Z,1.36
2023-03-11T11:26:04.503Z,1.35
2023-03-11T11:28:34.978Z,1.35
2023-03-11T11:31:23.388Z,1.30
2023-03-11T11:33:55.905Z,1.22
2023-03-11T11:36:32.348Z,1.17
2023-03-11T11:39:11.771Z,1.15
2023-03-11T11:41:44.825Z,1.14
2023-03-11T11:44:19.631Z,1.12
2023-03-11T11:46:55.369Z,1.07
2023-03-11T11:49:28.326Z,1.04
2023-03-11T11:52:05.951Z,1.02
2023-03-11T11:54:38.847Z,1.02
2023-03-11T11:57:13.821Z,1.04
2023-03-11T11:59:43.552Z,1.04
2023-03-11T12:02:39.219Z,1.04
2023-03-11T12:05:15.801Z,1.01
2023-03-11T12:08:01.342Z,1.02
2023-03-11T12:10:34.415Z,0.96
2023-03-11T12:13:24.373Z,0.94
2023-03-11T12:16:07.975Z,0.88
2023-03-11T12:18:42.932Z,0.86
2023-03-11T12:21:32.751Z,0.87
2023-03-11T12:24:20.030Z,0.88
2023-03-11T12:26:53.071Z,0.86
2023-03-11T12:29:28.969Z,0.84
2023-03-11T12:32:02.529Z,0.85
2023-03-11T12:34:34.245Z,0.89
2023-03-11T12:37:16.466Z,0.89
2023-03-11T12:39:45.483Z,0.83
2023-03-11T12:42:24.531Z,0.73
2023-03-11T12:44:53.798Z,0.64
2023-03-11T12:47:26.659Z,0.56
2023-03-11T12:50:16.724Z,0.49
2023-03-11T12:52:56.150Z,0.40
2023-03-11T12:55:32.902Z,0.38
2023-03-11T12:58:34.788Z,0.36
2023-03-11T13:01:40.780Z,0.34
2023-03-11T13:04:25.955Z,0.31
2023-03-11T13:07:25.228Z,0.27
2023-03-11T13:10:14.954Z,0.22
2023-03-11T13:12:45.954Z,0.18
2023-03-11T13:15:30.367Z,0.11
2023-03-11T13:18:02.482Z,0.04
2023-03-11T13:20:51.300Z,-0.05
2023-03-11T13:23:36.721Z,-0.16
2023-03-11T13:26:37.808Z,-0.21
2023-03-11T13:29:29.511Z,-0.25
2023-03-11T13:32:19.768Z,-0.24
2023-03-11T13:34:55.048Z,-0.23
2023-03-11T13:37:37.945Z,-0.24
2023-03-11T13:40:18.514Z,-0.23
2023-03-11T13:42:50.777Z,-0.24
2023-03-11T13:45:27.997Z,-0.26
2023-03-11T13:48:02.480Z,-0.30
2023-03-11T13:50:36.495Z,-0.34
2023-03-11T13:53:10.822Z,-0.36
2023-03-11T13:55:45.971Z,-0.39
2023-03-11T13:58:22.969Z,-0.44
2023-03-11T14:00:54.484Z,-0.47
2023-03-11T14:03:24.981Z,-0.49
2023-03-11T14:06:03.492Z,-0.51
2023-03-11T14:08:35.091Z,-0.52
2023-03-11T14:11:17.169Z,-0.51
2023-03-11T14:13:47.663Z,-0.52
2023-03-11T14:16:20.451Z,-0.53
2023-03-11T14:19:04.363Z,-0.54
2023-03-11T14:21:36.639Z,-0.56
2023-03-11T14:24:06.327Z,-0.56
2023-03-11T14:26:37.970Z,-0.56
2023-03-11T14:29:12.634Z,-0.53
2023-03-11T14:31:47.728Z,-0.53
2023-03-11T14:38:32.278Z,-0.50
2023-03-11T14:41:25.819Z,-0.47
2023-03-11T14:43:55.788Z,-0.45
2023-03-11T14:46:29.116Z,-0.42
2023-03-11T14:49:02.342Z,-0.37
2023-03-11T14:51:36.337Z,-0.32
2023-03-11T14:54:16.608Z,-0.27
2023-03-11T14:57:00.167Z,-0.25
2023-03-11T15:16:22.291Z,-0.24
2023-03-11T15:20:31.590Z,-0.17
2023-03-11T15:24:14.756Z,-0.14
2023-03-11T15:28:12.437Z,-0.15
2023-03-11T15:29:39.040Z,-0.21
2023-03-11T15:35:13.920Z,-0.19
2023-03-11T15:39:06.759Z,-0.21
2023-03-11T15:42:47.426Z,-0.25
2023-03-11T15:46:46.148Z,-0.27
2023-03-11T15:49:50.767Z,-0.30
2023-03-11T15:53:06.773Z,-0.31
2023-03-11T16:00:28.682Z,-0.33
2023-03-11T16:03:07.859Z,-0.34
2023-03-11T16:05:37.253Z,-0.35
2023-03-11T16:08:12.512Z,-0.36
2023-03-11T16:10:41.948Z,-0.36
2023-03-11T16:13:13.559Z,-0.36
2023-03-11T16:15:46.580Z,-0.35
2023-03-11T16:18:16.059Z,-0.37
2023-03-11T16:20:50.174Z,-0.37
2023-03-11T16:23:25.440Z,-0.38
2023-03-11T16:25:58.976Z,-0.39
2023-03-11T16:28:28.568Z,-0.41
2023-03-11T16:30:57.810Z,-0.43
2023-03-11T16:33:27.100Z,-0.47
2023-03-11T16:35:56.186Z,-0.49
2023-03-11T16:38:25.213Z,-0.52
2023-03-11T16:40:58.019Z,-0.52
2023-03-11T16:43:29.073Z,-0.56
2023-03-11T16:45:59.387Z,-0.59
2023-03-11T16:48:30.661Z,-0.61
2023-03-11T16:51:00.014Z,-0.63
2023-03-11T16:53:32.616Z,-0.67
2023-03-11T16:56:05.013Z,-0.67
2023-03-11T16:58:34.039Z,-0.70
2023-03-11T17:01:16.503Z,-0.74
2023-03-11T17:03:48.218Z,-0.76
2023-03-11T17:06:20.305Z,-0.78
2023-03-11T17:08:50.627Z,-0.77
2023-03-11T17:11:21.744Z,-0.76
2023-03-11T17:13:55.397Z,-0.78
2023-03-11T17:16:27.515Z,-0.78
2023-03-11T17:19:01.755Z,-0.79
2023-03-11T17:21:30.933Z,-0.79
2023-03-11T17:24:02.678Z,-0.79
2023-03-11T17:26:34.791Z,-0.79
2023-03-11T17:29:06.119Z,-0.80
2023-03-11T17:31:41.638Z,-0.80
2023-03-11T17:34:14.958Z,-0.81
2023-03-11T17:36:47.379Z,-0.83
2023-03-11T17:39:19.081Z,-0.86
2023-03-11T17:41:49.214Z,-0.88
2023-03-11T17:44:18.270Z,-0.90
2023-03-11T17:46:48.067Z,-0.94
2023-03-11T17:49:17.528Z,-0.96
2023-03-11T17:51:46.974Z,-0.97
2023-03-11T17:54:16.293Z,-1.00
2023-03-11T17:56:46.873Z,-1.01
2023-03-11T17:59:18.051Z,-1.02
2023-03-11T18:01:58.173Z,-1.03
2023-03-11T18:04:28.371Z,-1.02
2023-03-11T18:06:57.658Z,-1.01
2023-03-11T18:09:27.805Z,-1.00
2023-03-11T18:11:57.307Z,-0.99
2023-03-11T18:14:26.432Z,-0.99
2023-03-11T18:16:55.583Z,-0.98
2023-03-11T18:19:24.816Z,-0.99
2023-03-11T18:21:54.417Z,-1.01
2023-03-11T18:24:23.859Z,-1.04
2023-03-11T18:26:53.142Z,-1.07
2023-03-11T18:29:24.288Z,-1.10
2023-03-11T18:31:53.636Z,-1.13
2023-03-11T18:34:22.938Z,-1.15
2023-03-11T18:36:54.492Z,-1.16
2023-03-11T18:39:23.512Z,-1.19
2023-03-11T18:41:52.790Z,-1.21
2023-03-11T18:44:21.801Z,-1.22
2023-03-11T18:46:54.521Z,-1.25
2023-03-11T18:49:23.354Z,-1.25
2023-03-11T18:51:53.413Z,-1.27
2023-03-11T18:54:22.962Z,-1.30
2023-03-11T18:56:53.430Z,-1.32
2023-03-11T18:59:22.595Z,-1.35
2023-03-11T19:01:52.415Z,-1.35
2023-03-11T19:04:21.346Z,-1.37
2023-03-11T19:06:52.272Z,-1.40
2023-03-11T19:09:21.136Z,-1.41
2023-03-11T19:11:50.564Z,-1.43
2023-03-11T19:14:19.580Z,-1.45
2023-03-11T19:16:50.010Z,-1.45
2023-03-11T19:19:19.052Z,-1.47
2023-03-11T19:21:49.483Z,-1.48
2023-03-11T19:24:18.425Z,-1.47
2023-03-11T19:26:48.367Z,-1.49
2023-03-11T19:29:19.225Z,-1.50
2023-03-11T19:31:49.268Z,-1.52
2023-03-11T19:34:19.590Z,-1.54
2023-03-11T19:36:49.719Z,-1.55
2023-03-11T19:39:18.917Z,-1.57
2023-03-11T19:41:49.012Z,-1.57
2023-03-11T19:44:18.124Z,-1.57
2023-03-11T19:46:47.714Z,-1.57
2023-03-11T19:49:16.964Z,-1.60
2023-03-11T19:51:52.479Z,-1.61
2023-03-11T19:54:21.824Z,-1.64
2023-03-11T19:56:52.233Z,-1.65
2023-03-11T19:59:21.142Z,-1.67
2023-03-11T20:01:51.012Z,-1.68
2023-03-11T20:04:20.024Z,-1.71
2023-03-11T20:06:49.832Z,-1.71
2023-03-11T20:09:20.121Z,-1.74
2023-03-11T20:11:53.449Z,-1.76
2023-03-11T20:14:22.404Z,-1.78
2023-03-11T20:16:53.333Z,-1.80
2023-03-11T20:19:22.574Z,-1.81
2023-03-11T20:21:51.983Z,-1.82
2023-03-11T20:24:21.068Z,-1.83
2023-03-11T20:26:51.343Z,-1.87
2023-03-11T20:29:20.483Z,-1.89
2023-03-11T20:31:50.178Z,-1.91
2023-03-11T20:34:20.734Z,-1.93
2023-03-11T20:36:52.062Z,-1.94
2023-03-11T20:39:21.126Z,-1.94
2023-03-11T20:41:51.549Z,-1.95
2023-03-11T20:44:20.420Z,-1.94
2023-03-11T20:46:54.373Z,-1.95
2023-03-11T20:49:23.541Z,-1.95
2023-03-11T20:51:52.676Z,-1.94
2023-03-11T20:54:21.561Z,-1.90
2023-03-11T20:56:51.127Z,-1.83
2023-03-11T20:59:20.154Z,-1.79
2023-03-11T21:01:49.697Z,-1.75
2023-03-11T21:04:23.832Z,-1.71
2023-03-11T21:06:56.873Z,-1.68
2023-03-11T21:09:26.937Z,-1.68
2023-03-11T21:11:56.810Z,-1.67
2023-03-11T21:14:27.047Z,-1.67
2023-03-11T21:16:57.044Z,-1.68
2023-03-11T21:19:26.192Z,-1.68
2023-03-11T21:21:55.707Z,-1.68
2023-03-11T21:24:25.070Z,-1.67
2023-03-11T21:26:54.428Z,-1.66
2023-03-11T21:29:23.867Z,-1.66
2023-03-11T21:31:53.569Z,-1.67
2023-03-11T21:34:22.562Z,-1.67
2023-03-11T21:36:51.934Z,-1.68
2023-03-11T21:39:21.714Z,-1.70
2023-03-11T21:41:52.875Z,-1.71
2023-03-11T21:44:22.521Z,-1.73
2023-03-11T21:46:57.824Z,-1.75
2023-03-11T21:49:28.101Z,-1.75
2023-03-11T21:52:00.305Z,-1.74
2023-03-11T21:54:31.050Z,-1.73
2023-03-11T21:57:00.901Z,-1.72
2023-03-11T21:59:31.418Z,-1.68
2023-03-11T22:02:02.220Z,-1.66
2023-03-11T22:04:32.031Z,-1.61
2023-03-11T22:07:02.113Z,-1.59
2023-03-11T22:09:31.245Z,-1.55
2023-03-11T22:12:03.233Z,-1.52
2023-03-11T22:14:32.324Z,-1.50
2023-03-11T22:17:02.586Z,-1.49
2023-03-11T22:19:31.924Z,-1.49
2023-03-11T22:22:02.156Z,-1.49
2023-03-11T22:24:30.965Z,-1.50
2023-03-11T22:27:00.109Z,-1.54
2023-03-11T22:29:30.156Z,-1.57
2023-03-11T22:31:59.706Z,-1.59
2023-03-11T22:34:32.172Z,-1.63
2023-03-11T22:37:01.813Z,-1.66
2023-03-11T22:39:30.979Z,-1.69
2023-03-11T22:42:00.348Z,-1.72
2023-03-11T22:44:30.286Z,-1.74
2023-03-11T22:47:01.398Z,-1.77
2023-03-11T22:49:30.727Z,-1.79
2023-03-11T22:52:02.544Z,-1.79
2023-03-11T22:54:32.010Z,-1.81
2023-03-11T22:57:02.056Z,-1.84
2023-03-11T22:59:31.167Z,-1.86
2023-03-11T23:02:02.111Z,-1.89
2023-03-11T23:04:31.301Z,-1.91
2023-03-11T23:07:02.302Z,-1.94
2023-03-11T23:09:31.714Z,-1.96
2023-03-11T23:12:03.297Z,-1.97
2023-03-11T23:14:44.551Z,-1.98
2023-03-11T23:17:14.207Z,-1.99
2023-03-11T23:19:43.149Z,-2.02
2023-03-11T23:22:12.113Z,-2.04
2023-03-11T23:24:41.469Z,-2.05
2023-03-11T23:27:10.363Z,-2.07
2023-03-11T23:29:39.353Z,-2.09
2023-03-11T23:32:08.588Z,-2.10
2023-03-11T23:34:37.928Z,-2.12
2023-03-11T23:37:07.173Z,-2.14
2023-03-11T23:39:36.453Z,-2.15
2023-03-11T23:42:18.603Z,-2.17
2023-03-11T23:44:56.867Z,-2.18
2023-03-11T23:47:30.299Z,-2.19
2023-03-11T23:50:01.718Z,-2.20
2023-03-11T23:52:32.768Z,-2.21
2023-03-11T23:55:05.174Z,-2.22
2023-03-11T23:57:35.839Z,-2.23
